createdAt,value
2019-02-18T00:00:51.926Z,10.21
2019-02-18T00:03:22.670Z,10.25
2019-02-18T00:05:51.792Z,10.21
2019-02-18T00:08:20.910Z,10.21
2019-02-18T00:10:50.033Z,10.29
2019-02-18T00:13:20.223Z,10.32
2019-02-18T00:15:49.337Z,10.30
2019-02-18T00:18:18.457Z,10.25
2019-02-18T00:20:47.573Z,10.26
2019-02-18T00:23:16.694Z,10.25
2019-02-18T00:25:45.808Z,10.11
2019-02-18T00:28:14.935Z,10.11
2019-02-18T00:30:44.272Z,9.97
2019-02-18T00:33:13.395Z,9.90
2019-02-18T00:35:42.499Z,9.87
2019-02-18T00:38:11.615Z,9.98
2019-02-18T00:40:40.732Z,9.96
2019-02-18T00:43:09.852Z,9.95
2019-02-18T00:45:38.966Z,9.95
2019-02-18T00:48:08.089Z,9.92
2019-02-18T00:50:37.199Z,9.81
2019-02-18T00:53:06.681Z,9.62
2019-02-18T00:55:35.795Z,9.69
2019-02-18T00:58:04.900Z,9.72
2019-02-18T01:00:34.015Z,9.76
2019-02-18T01:03:03.127Z,9.70
2019-02-18T01:05:32.240Z,9.64
2019-02-18T01:08:01.356Z,9.59
2019-02-18T01:10:30.467Z,9.57
2019-02-18T01:12:59.588Z,9.56
2019-02-18T01:15:28.693Z,9.51
2019-02-18T01:17:57.810Z,9.47
2019-02-18T01:20:26.916Z,9.39
2019-02-18T01:22:56.032Z,9.33
2019-02-18T01:25:25.147Z,9.36
2019-02-18T01:27:54.275Z,9.27
2019-02-18T01:30:23.646Z,9.27
2019-02-18T01:32:52.764Z,9.34
2019-02-18T01:35:22.138Z,9.38
2019-02-18T01:37:51.254Z,9.34
2019-02-18T01:40:20.368Z,9.25
2019-02-18T01:42:49.481Z,9.28
2019-02-18T01:45:18.597Z,9.16
2019-02-18T01:47:47.708Z,9.14
2019-02-18T01:50:16.833Z,9.21
2019-02-18T01:52:46.019Z,9.21
2019-02-18T01:55:15.127Z,9.19
2019-02-18T01:57:45.253Z,9.16
2019-02-18T02:00:16.003Z,9.17
2019-02-18T02:02:45.109Z,9.13
2019-02-18T02:05:17.864Z,9.11
2019-02-18T02:07:55.837Z,9.19
2019-02-18T02:10:17.791Z,9.10
2019-02-18T02:12:47.351Z,8.97
2019-02-18T02:15:27.315Z,8.95
2019-02-18T02:17:56.433Z,8.86
2019-02-18T02:20:25.549Z,8.86
2019-02-18T02:22:59.361Z,8.90
2019-02-18T02:25:27.838Z,8.88
2019-02-18T02:27:56.821Z,8.81
2019-02-18T02:30:25.946Z,8.85
2019-02-18T02:32:55.088Z,8.89
2019-02-18T02:35:24.175Z,8.89
2019-02-18T02:37:53.296Z,8.92
2019-02-18T02:40:22.721Z,8.84
2019-02-18T02:42:52.070Z,8.80
2019-02-18T02:45:21.193Z,8.79
2019-02-18T02:47:50.334Z,8.78
2019-02-18T02:50:19.446Z,8.79
2019-02-18T02:52:48.562Z,8.77
2019-02-18T02:55:18.013Z,8.80
2019-02-18T02:57:47.129Z,8.80
2019-02-18T03:00:16.423Z,8.77
2019-02-18T03:02:45.530Z,8.73
2019-02-18T03:05:14.649Z,8.74
2019-02-18T03:07:43.772Z,8.66
2019-02-18T03:10:13.642Z,8.57
2019-02-18T03:12:42.997Z,8.64
2019-02-18T03:15:16.025Z,8.59
2019-02-18T03:17:45.175Z,8.47
2019-02-18T03:20:14.516Z,8.46
2019-02-18T03:22:43.635Z,8.37
2019-02-18T03:25:19.224Z,8.31
2019-02-18T03:27:51.596Z,8.29
2019-02-18T03:30:40.130Z,8.23
2019-02-18T03:33:16.335Z,8.11
2019-02-18T03:35:45.468Z,8.08
2019-02-18T03:38:14.580Z,8.09
2019-02-18T03:40:43.705Z,8.10
2019-02-18T03:43:13.052Z,8.08
2019-02-18T03:45:43.135Z,8.10
2019-02-18T03:48:12.563Z,8.10
2019-02-18T03:50:41.676Z,8.14
2019-02-18T03:53:11.067Z,8.12
2019-02-18T03:55:40.182Z,8.10
2019-02-18T03:58:09.563Z,8.10
2019-02-18T04:00:38.681Z,8.17
2019-02-18T04:03:07.793Z,8.16
2019-02-18T04:05:36.914Z,8.12
2019-02-18T04:08:06.025Z,8.09
2019-02-18T04:10:35.142Z,8.00
2019-02-18T04:13:04.556Z,8.04
2019-02-18T04:15:33.669Z,8.04
2019-02-18T04:18:02.825Z,8.07
2019-02-18T04:20:31.896Z,8.09
2019-02-18T04:23:01.023Z,8.03
2019-02-18T04:25:30.141Z,7.99
2019-02-18T04:28:00.242Z,8.04
2019-02-18T04:30:29.375Z,8.05
2019-02-18T04:32:58.509Z,8.05
2019-02-18T04:35:27.633Z,7.99
2019-02-18T04:37:56.829Z,7.92
2019-02-18T04:40:25.941Z,7.92
2019-02-18T04:42:55.059Z,7.92
2019-02-18T04:45:24.172Z,7.89
2019-02-18T04:47:53.288Z,7.85
2019-02-18T04:50:22.412Z,7.87
2019-02-18T04:52:51.525Z,7.87
2019-02-18T04:55:20.638Z,7.84
2019-02-18T04:57:49.757Z,7.81
2019-02-18T05:00:19.126Z,7.85
2019-02-18T05:02:48.251Z,7.80
2019-02-18T05:05:18.331Z,7.69
2019-02-18T05:07:47.448Z,7.60
2019-02-18T05:10:16.847Z,7.68
2019-02-18T05:12:45.996Z,7.70
2019-02-18T05:15:15.100Z,7.67
2019-02-18T05:17:44.218Z,7.67
2019-02-18T05:20:13.332Z,7.62
2019-02-18T05:22:42.453Z,7.50
2019-02-18T05:25:13.068Z,7.56
2019-02-18T05:27:43.228Z,7.42
2019-02-18T05:30:12.411Z,7.46
2019-02-18T05:32:41.529Z,7.49
2019-02-18T05:35:10.641Z,7.39
2019-02-18T05:37:39.757Z,7.37
2019-02-18T05:40:08.885Z,7.42
2019-02-18T05:42:38.030Z,7.42
2019-02-18T05:45:08.549Z,7.42
2019-02-18T05:47:37.659Z,7.42
2019-02-18T05:50:08.320Z,7.36
2019-02-18T05:52:37.418Z,7.32
2019-02-18T05:55:06.977Z,7.29
2019-02-18T05:57:36.154Z,7.28
2019-02-18T06:00:10.846Z,7.20
2019-02-18T06:02:39.955Z,7.25
2019-02-18T06:05:09.073Z,7.30
2019-02-18T06:07:38.187Z,7.35
2019-02-18T06:10:08.643Z,7.30
2019-02-18T06:12:37.821Z,7.26
2019-02-18T06:15:09.175Z,7.22
2019-02-18T06:17:38.296Z,7.13
2019-02-18T06:20:08.951Z,7.23
2019-02-18T06:22:38.857Z,7.13
2019-02-18T06:25:08.016Z,7.14
2019-02-18T06:27:37.133Z,7.07
2019-02-18T06:30:09.976Z,7.08
2019-02-18T06:32:39.093Z,7.05
2019-02-18T06:35:09.302Z,7.04
2019-02-18T06:37:38.400Z,7.08
2019-02-18T06:40:08.659Z,7.01
2019-02-18T06:42:37.822Z,7.03
2019-02-18T06:45:11.902Z,6.96
2019-02-18T06:47:41.120Z,6.96
2019-02-18T06:50:10.241Z,6.96
2019-02-18T06:52:39.354Z,6.97
2019-02-18T06:55:08.479Z,7.00
2019-02-18T06:57:39.228Z,6.84
2019-02-18T07:00:10.931Z,6.87
2019-02-18T07:02:41.692Z,6.94
2019-02-18T07:05:12.438Z,6.94
2019-02-18T07:07:46.487Z,7.00
2019-02-18T07:10:17.256Z,7.03
2019-02-18T07:12:47.038Z,7.06
2019-02-18T07:15:16.158Z,6.99
2019-02-18T07:17:45.284Z,7.00
2019-02-18T07:20:14.450Z,7.02
2019-02-18T07:22:43.513Z,7.01
2019-02-18T07:25:12.629Z,6.91
2019-02-18T07:27:41.744Z,6.99
2019-02-18T07:30:12.696Z,7.05
2019-02-18T07:32:41.819Z,7.06
2019-02-18T07:35:10.932Z,7.06
2019-02-18T07:37:40.284Z,7.02
2019-02-18T07:40:10.044Z,7.06
2019-02-18T07:42:39.447Z,7.02
2019-02-18T07:45:09.803Z,7.08
2019-02-18T07:47:38.925Z,7.17
2019-02-18T07:50:19.967Z,7.18
2019-02-18T07:52:40.651Z,7.18
2019-02-18T07:55:09.768Z,7.15
2019-02-18T07:57:39.147Z,7.19
2019-02-18T08:00:11.521Z,7.22
2019-02-18T08:02:40.650Z,7.29
2019-02-18T08:05:09.769Z,7.32
2019-02-18T08:07:38.885Z,7.38
2019-02-18T08:10:12.303Z,7.41
2019-02-18T08:12:41.302Z,7.38
2019-02-18T08:15:10.948Z,7.41
2019-02-18T08:17:40.138Z,7.39
2019-02-18T08:20:10.588Z,7.46
2019-02-18T08:22:39.728Z,7.43
2019-02-18T08:25:13.352Z,7.50
2019-02-18T08:27:42.490Z,7.57
2019-02-18T08:30:14.398Z,7.66
2019-02-18T08:32:43.796Z,7.71
2019-02-18T08:35:13.139Z,7.73
2019-02-18T08:37:42.248Z,7.76
2019-02-18T08:40:11.360Z,7.81
2019-02-18T08:42:40.476Z,7.84
2019-02-18T08:45:11.803Z,7.88
2019-02-18T08:47:41.144Z,7.94
2019-02-18T08:50:11.591Z,7.96
2019-02-18T08:52:40.705Z,8.01
2019-02-18T08:55:11.981Z,8.05
2019-02-18T08:57:41.092Z,8.09
2019-02-18T09:00:13.156Z,8.07
2019-02-18T09:02:42.342Z,8.11
2019-02-18T09:05:11.527Z,8.20
2019-02-18T09:07:40.660Z,8.22
2019-02-18T09:10:11.919Z,8.24
2019-02-18T09:12:41.032Z,8.26
2019-02-18T09:15:11.027Z,8.27
2019-02-18T09:17:40.121Z,8.33
2019-02-18T09:20:10.886Z,8.35
2019-02-18T09:22:41.639Z,8.42
2019-02-18T09:25:18.654Z,8.55
2019-02-18T09:27:49.644Z,8.64
2019-02-18T09:30:20.696Z,8.71
2019-02-18T09:32:49.809Z,8.73
2019-02-18T09:35:19.903Z,8.77
2019-02-18T09:37:49.996Z,8.86
2019-02-18T09:40:19.112Z,8.89
2019-02-18T09:42:48.226Z,8.96
2019-02-18T09:45:17.337Z,8.96
2019-02-18T09:47:46.451Z,9.00
2019-02-18T09:50:15.567Z,9.03
2019-02-18T09:52:44.688Z,9.11
2019-02-18T09:55:13.804Z,9.18
2019-02-18T09:57:44.254Z,9.24
2019-02-18T10:00:13.449Z,9.31
2019-02-18T10:02:42.583Z,9.36
2019-02-18T10:05:11.698Z,9.44
2019-02-18T10:07:40.820Z,9.43
2019-02-18T10:10:10.828Z,9.52
2019-02-18T10:12:39.941Z,9.62
2019-02-18T10:15:10.693Z,9.71
2019-02-18T10:17:39.887Z,9.80
2019-02-18T10:20:11.035Z,9.86
2019-02-18T10:22:40.158Z,9.93
2019-02-18T10:25:11.881Z,9.98
2019-02-18T10:27:41.018Z,10.03
2019-02-18T10:30:10.883Z,10.14
2019-02-18T10:32:40.057Z,10.19
2019-02-18T10:35:14.722Z,10.27
2019-02-18T10:37:43.850Z,10.40
2019-02-18T10:40:12.971Z,10.44
2019-02-18T10:42:42.430Z,10.48
2019-02-18T10:45:12.888Z,10.53
2019-02-18T10:47:42.015Z,10.63
2019-02-18T10:50:12.474Z,10.73
2019-02-18T10:52:41.598Z,10.86
2019-02-18T10:55:11.596Z,10.94
2019-02-18T10:57:41.053Z,11.05
2019-02-18T11:00:15.474Z,11.21
2019-02-18T11:02:44.857Z,11.32
2019-02-18T11:05:14.233Z,11.47
2019-02-18T11:07:43.681Z,11.64
2019-02-18T11:10:14.514Z,11.85
2019-02-18T11:12:43.631Z,12.03
2019-02-18T11:15:13.800Z,12.31
2019-02-18T11:17:43.208Z,12.60
2019-02-18T11:20:13.175Z,12.94
2019-02-18T11:22:42.615Z,13.22
2019-02-18T11:25:12.856Z,13.59
2019-02-18T11:27:42.241Z,14.09
2019-02-18T11:30:15.528Z,14.44
2019-02-18T11:32:44.667Z,14.86
2019-02-18T11:35:13.833Z,15.22
2019-02-18T11:37:42.957Z,15.56
2019-02-18T11:40:17.268Z,15.85
2019-02-18T11:42:46.437Z,16.16
2019-02-18T11:45:16.600Z,16.61
2019-02-18T11:47:45.721Z,16.99
2019-02-18T11:50:15.221Z,17.38
2019-02-18T11:52:44.345Z,17.76
2019-02-18T11:55:14.207Z,18.15
2019-02-18T11:57:43.615Z,18.47
2019-02-18T12:00:16.226Z,18.73
2019-02-18T12:02:45.392Z,19.02
2019-02-18T12:05:14.528Z,19.27
2019-02-18T12:07:43.656Z,19.49
2019-02-18T12:10:13.713Z,19.62
2019-02-18T12:12:43.019Z,19.85
2019-02-18T12:15:15.857Z,20.05
2019-02-18T12:17:44.987Z,20.26
2019-02-18T12:20:14.852Z,20.55
2019-02-18T12:22:43.985Z,20.79
2019-02-18T12:25:13.528Z,21.04
2019-02-18T12:27:43.059Z,21.07
2019-02-18T12:30:14.033Z,20.92
2019-02-18T12:32:43.158Z,21.14
2019-02-18T12:35:12.276Z,21.46
2019-02-18T12:37:41.431Z,21.78
2019-02-18T12:40:11.895Z,21.93
2019-02-18T12:42:42.419Z,22.15
2019-02-18T12:45:12.221Z,22.11
2019-02-18T12:47:41.699Z,22.21
2019-02-18T12:50:11.756Z,22.16
2019-02-18T12:52:41.134Z,22.41
2019-02-18T12:55:11.373Z,22.64
2019-02-18T12:57:41.052Z,22.75
2019-02-18T13:00:13.790Z,23.07
2019-02-18T13:02:44.951Z,23.41
2019-02-18T13:05:14.845Z,23.51
2019-02-18T13:07:43.990Z,23.59
2019-02-18T13:10:14.083Z,23.73
2019-02-18T13:12:43.485Z,23.98
2019-02-18T13:15:17.151Z,24.07
2019-02-18T13:17:46.306Z,24.42
2019-02-18T13:20:15.436Z,24.94
2019-02-18T13:22:44.559Z,25.56
2019-02-18T13:25:13.683Z,26.19
2019-02-18T13:27:42.864Z,26.57
2019-02-18T13:30:14.892Z,26.80
2019-02-18T13:32:44.095Z,27.05
2019-02-18T13:35:13.220Z,27.33
2019-02-18T13:37:43.741Z,27.54
2019-02-18T13:40:14.765Z,27.64
2019-02-18T13:42:44.173Z,27.94
2019-02-18T13:45:13.326Z,28.23
2019-02-18T13:47:42.415Z,28.47
2019-02-18T13:50:12.478Z,28.65
2019-02-18T13:52:41.612Z,28.85
2019-02-18T13:55:12.143Z,28.76
2019-02-18T13:57:41.727Z,29.08
2019-02-18T14:00:18.255Z,29.37
2019-02-18T14:02:47.616Z,29.65
2019-02-18T14:05:18.738Z,29.78
2019-02-18T14:07:47.855Z,29.91
2019-02-18T14:10:17.254Z,30.02
2019-02-18T14:12:46.383Z,30.18
2019-02-18T14:15:15.780Z,30.38
2019-02-18T14:17:44.894Z,30.58
2019-02-18T14:20:14.758Z,30.62
2019-02-18T14:22:43.884Z,30.62
2019-02-18T14:25:13.779Z,30.57
2019-02-18T14:27:42.971Z,30.40
2019-02-18T14:30:17.048Z,30.00
2019-02-18T14:32:46.165Z,29.58
2019-02-18T14:35:17.104Z,29.10
2019-02-18T14:37:46.337Z,28.66
2019-02-18T14:40:17.508Z,28.07
2019-02-18T14:42:46.863Z,27.44
2019-02-18T14:45:16.002Z,26.67
2019-02-18T14:47:45.351Z,25.89
2019-02-18T14:50:17.570Z,25.38
2019-02-18T14:52:46.973Z,25.08
2019-02-18T14:55:16.091Z,24.66
2019-02-18T14:57:45.205Z,24.33
2019-02-18T15:00:23.851Z,23.87
2019-02-18T15:02:54.800Z,23.58
2019-02-18T15:05:25.197Z,23.15
2019-02-18T15:07:54.319Z,22.56
2019-02-18T15:10:23.686Z,22.21
2019-02-18T15:12:52.944Z,21.87
2019-02-18T15:15:22.094Z,21.45
2019-02-18T15:17:51.478Z,21.32
2019-02-18T15:20:21.229Z,21.35
2019-02-18T15:22:50.510Z,21.06
2019-02-18T15:25:19.869Z,20.94
2019-02-18T15:27:50.194Z,20.69
2019-02-18T15:30:19.594Z,20.59
2019-02-18T15:32:48.778Z,20.54
2019-02-18T15:35:18.088Z,20.61
2019-02-18T15:37:47.532Z,20.57
2019-02-18T15:40:17.675Z,20.43
2019-02-18T15:42:46.980Z,20.37
2019-02-18T15:45:16.121Z,20.17
2019-02-18T15:47:45.523Z,20.02
2019-02-18T15:50:15.068Z,19.98
2019-02-18T15:52:44.192Z,20.00
2019-02-18T15:55:13.325Z,19.89
2019-02-18T15:57:42.689Z,19.76
2019-02-18T16:00:23.589Z,19.70
2019-02-18T16:02:52.711Z,19.69
2019-02-18T16:05:21.887Z,19.63
2019-02-18T16:07:51.637Z,19.48
2019-02-18T16:10:21.262Z,19.32
2019-02-18T16:12:51.198Z,19.20
2019-02-18T16:15:21.698Z,19.01
2019-02-18T16:17:50.824Z,18.71
2019-02-18T16:20:20.064Z,18.52
2019-02-18T16:22:49.182Z,18.21
2019-02-18T16:25:20.858Z,18.18
2019-02-18T16:27:49.985Z,18.11
2019-02-18T16:30:19.139Z,18.00
2019-02-18T16:32:48.267Z,17.93
2019-02-18T16:35:17.396Z,17.85
2019-02-18T16:37:46.754Z,17.62
2019-02-18T16:40:17.624Z,17.47
2019-02-18T16:42:46.762Z,17.02
2019-02-18T16:45:15.909Z,16.61
2019-02-18T16:47:45.113Z,16.43
2019-02-18T16:50:14.222Z,16.42
2019-02-18T16:52:43.720Z,16.36
2019-02-18T16:55:14.280Z,16.26
2019-02-18T16:57:43.437Z,16.28
2019-02-18T17:00:29.501Z,16.32
2019-02-18T17:02:58.756Z,16.35
2019-02-18T17:05:28.214Z,16.41
2019-02-18T17:07:57.337Z,16.46
2019-02-18T17:10:30.597Z,16.51
2019-02-18T17:13:07.637Z,16.54
2019-02-18T17:15:30.789Z,16.48
2019-02-18T17:18:01.181Z,16.44
2019-02-18T17:20:30.454Z,16.23
2019-02-18T17:22:59.585Z,16.19
2019-02-18T17:25:28.985Z,15.95
2019-02-18T17:27:58.106Z,16.04
2019-02-18T17:30:27.470Z,16.10
2019-02-18T17:32:56.882Z,15.99
2019-02-18T17:35:26.001Z,15.73
2019-02-18T17:37:55.480Z,15.82
2019-02-18T17:40:25.004Z,15.65
2019-02-18T17:42:54.114Z,15.67
2019-02-18T17:45:23.233Z,15.66
2019-02-18T17:47:52.374Z,15.46
2019-02-18T17:50:21.499Z,15.37
2019-02-18T17:52:50.631Z,15.40
2019-02-18T17:55:20.129Z,15.28
2019-02-18T17:57:49.303Z,15.00
2019-02-18T18:00:24.979Z,14.85
2019-02-18T18:02:55.173Z,14.46
2019-02-18T18:05:24.306Z,14.27
2019-02-18T18:07:53.518Z,13.92
2019-02-18T18:10:22.708Z,13.36
2019-02-18T18:12:51.830Z,12.91
2019-02-18T18:15:20.959Z,12.79
2019-02-18T18:17:50.077Z,12.62
2019-02-18T18:20:19.204Z,12.50
2019-02-18T18:22:48.321Z,12.50
2019-02-18T18:25:17.741Z,12.74
2019-02-18T18:27:46.858Z,12.71
2019-02-18T18:30:19.378Z,12.65
2019-02-18T18:32:48.514Z,12.77
2019-02-18T18:35:17.664Z,12.89
2019-02-18T18:37:46.783Z,12.89
2019-02-18T18:40:20.388Z,13.06
2019-02-18T18:42:49.506Z,13.17
2019-02-18T18:45:18.628Z,13.14
2019-02-18T18:47:47.822Z,13.11
2019-02-18T18:50:21.562Z,13.13
2019-02-18T18:52:50.040Z,13.03
2019-02-18T18:55:19.030Z,12.78
2019-02-18T18:57:48.183Z,12.73
2019-02-18T19:00:21.191Z,12.68
2019-02-18T19:02:50.406Z,12.63
2019-02-18T19:05:19.971Z,12.85
2019-02-18T19:07:49.090Z,12.91
2019-02-18T19:10:18.445Z,12.88
2019-02-18T19:12:47.574Z,12.96
2019-02-18T19:15:18.043Z,12.89
2019-02-18T19:17:47.162Z,12.92
2019-02-18T19:20:16.463Z,12.96
2019-02-18T19:22:45.581Z,13.10
2019-02-18T19:25:14.989Z,13.18
2019-02-18T19:27:44.110Z,13.27
2019-02-18T19:30:21.844Z,13.17
2019-02-18T19:32:51.145Z,13.22
2019-02-18T19:35:20.590Z,13.15
2019-02-18T19:37:49.707Z,13.13
2019-02-18T19:40:18.841Z,13.03
2019-02-18T19:42:47.965Z,13.13
2019-02-18T19:45:19.131Z,12.96
2019-02-18T19:47:49.318Z,12.75
2019-02-18T19:50:18.485Z,12.65
2019-02-18T19:52:47.607Z,12.76
2019-02-18T19:55:16.737Z,12.72
2019-02-18T19:57:45.859Z,12.63
2019-02-18T20:00:17.555Z,12.64
2019-02-18T20:02:47.003Z,12.66
2019-02-18T20:05:16.130Z,12.56
2019-02-18T20:07:45.248Z,12.65
2019-02-18T20:10:14.370Z,12.61
2019-02-18T20:12:43.738Z,12.52
2019-02-18T20:15:14.265Z,12.48
2019-02-18T20:17:43.391Z,12.52
2019-02-18T20:20:13.948Z,12.43
2019-02-18T20:22:43.098Z,12.44
2019-02-18T20:25:13.166Z,12.41
2019-02-18T20:27:42.520Z,12.33
2019-02-18T20:30:17.624Z,12.19
2019-02-18T20:32:46.751Z,12.00
2019-02-18T20:35:15.979Z,11.75
2019-02-18T20:37:45.066Z,11.73
2019-02-18T20:40:14.413Z,11.91
2019-02-18T20:42:44.027Z,11.78
2019-02-18T20:45:13.885Z,11.68
2019-02-18T20:47:43.337Z,11.66
2019-02-18T20:50:14.567Z,11.76
2019-02-18T20:52:43.687Z,11.66
2019-02-18T20:55:15.835Z,11.49
2019-02-18T20:57:44.963Z,11.45
2019-02-18T21:00:18.768Z,11.32
2019-02-18T21:02:47.258Z,11.35
2019-02-18T21:05:16.551Z,11.41
2019-02-18T21:07:45.694Z,11.38
2019-02-18T21:10:16.834Z,11.39
2019-02-18T21:12:45.969Z,11.27
2019-02-18T21:15:15.086Z,11.24
2019-02-18T21:17:44.214Z,11.24
2019-02-18T21:20:14.172Z,11.26
2019-02-18T21:22:43.324Z,11.07
2019-02-18T21:25:12.436Z,10.87
2019-02-18T21:27:41.566Z,10.88
2019-02-18T21:30:14.867Z,10.88
2019-02-18T21:32:44.218Z,10.84
2019-02-18T21:35:14.313Z,10.96
2019-02-18T21:37:43.707Z,10.74
2019-02-18T21:40:12.835Z,10.61
2019-02-18T21:42:41.960Z,10.46
2019-02-18T21:45:12.930Z,10.54
2019-02-18T21:47:42.040Z,10.47
2019-02-18T21:50:11.806Z,10.24
2019-02-18T21:52:41.210Z,10.07
2019-02-18T21:55:11.375Z,10.15
2019-02-18T21:57:40.727Z,10.31
2019-02-18T22:00:14.581Z,10.20
2019-02-18T22:02:43.768Z,10.17
2019-02-18T22:05:12.964Z,10.24
2019-02-18T22:07:43.046Z,10.30
2019-02-18T22:10:12.168Z,10.37
2019-02-18T22:12:41.287Z,10.07
2019-02-18T22:15:12.494Z,10.05
2019-02-18T22:17:41.607Z,10.06
2019-02-18T22:20:11.661Z,10.01
2019-02-18T22:22:41.098Z,10.00
2019-02-18T22:25:12.132Z,10.04
2019-02-18T22:27:41.245Z,10.10
2019-02-18T22:30:15.205Z,10.03
2019-02-18T22:32:45.301Z,10.03
2019-02-18T22:35:14.783Z,10.15
2019-02-18T22:37:43.902Z,10.06
2019-02-18T22:40:13.374Z,10.16
2019-02-18T22:42:42.493Z,10.11
2019-02-18T22:45:12.195Z,10.06
2019-02-18T22:47:41.306Z,9.88
2019-02-18T22:50:11.956Z,9.81
2019-02-18T22:52:41.065Z,9.89
2019-02-18T22:55:10.957Z,9.81
2019-02-18T22:57:40.063Z,9.87
2019-02-18T23:00:26.026Z,9.66
2019-02-18T23:02:57.106Z,9.63
2019-02-18T23:05:26.226Z,9.61
2019-02-18T23:07:55.343Z,9.69
2019-02-18T23:10:24.629Z,9.70
2019-02-18T23:12:53.746Z,9.71
2019-02-18T23:15:22.873Z,9.74
2019-02-18T23:17:51.986Z,9.82
2019-02-18T23:20:21.104Z,9.66
2019-02-18T23:22:50.545Z,9.67
2019-02-18T23:25:19.677Z,9.61
2019-02-18T23:27:48.789Z,9.72
2019-02-18T23:30:17.939Z,9.74
2019-02-18T23:32:47.304Z,9.73
2019-02-18T23:35:16.597Z,9.84
2019-02-18T23:37:45.718Z,9.77
2019-02-18T23:40:14.836Z,9.71
2019-02-18T23:42:43.948Z,9.58
2019-02-18T23:45:13.062Z,9.65
2019-02-18T23:47:42.184Z,9.44
2019-02-18T23:50:11.295Z,9.47
2019-02-18T23:52:40.419Z,9.56
2019-02-18T23:55:09.541Z,9.58
2019-02-18T23:57:38.660Z,9.54
